Time;durP1;ratioP1;P1;durP2;ratioP2;P2;SDS_P1;SDS_P2;PMS_P1;PMS_P2;Temp;Humidity;BMP_temperature;BMP_pressure;BME280_temperature;BME280_humidity;BME280_pressure;Samples;Min_cycle;Max_cycle;Signal;HPM_P1;HPM_P2
2023/11/21 00:00:27;;;;;;;27.77;17.98;;;;;;;-0.61;100.00;99618.61;1775960;80;25348;-60
2023/11/21 00:02:57;;;;;;;26.33;17.52;;;;;;;-0.64;100.00;99621.23;1776311;80;25427;-60
2023/11/21 00:05:24;;;;;;;31.87;19.40;;;;;;;-0.67;100.00;99611.64;1757680;81;25787;-59
2023/11/21 00:07:51;;;;;;;27.35;17.85;;;;;;;-0.68;100.00;99607.36;1757655;81;25501;-59
2023/11/21 00:10:19;;;;;;;28.02;18.00;;;;;;;-0.70;100.00;99614.79;1752104;80;27238;-60
2023/11/21 00:12:48;;;;;;;29.20;18.70;;;;;;;-0.71;100.00;99611.87;1757634;81;25244;-60
2023/11/21 00:15:18;;;;;;;28.10;18.60;;;;;;;-0.72;100.00;99611.05;1776398;80;25557;-60
2023/11/21 00:17:46;;;;;;;30.95;18.92;;;;;;;-0.73;100.00;99610.80;1757668;81;25961;-60
2023/11/21 00:20:15;;;;;;;31.40;19.00;;;;;;;-0.74;100.00;99617.68;1776469;80;25583;-60
2023/11/21 00:22:42;;;;;;;30.80;20.32;;;;;;;-0.77;100.00;99617.13;1757743;81;27996;-61
2023/11/21 00:25:14;;;;;;;31.05;18.60;;;;;;;-0.79;100.00;99625.86;1776288;80;25941;-61
2023/11/21 00:27:43;;;;;;;31.45;19.35;;;;;;;-0.83;100.00;99619.98;1760989;81;25566;-61
2023/11/21 00:30:13;;;;;;;31.70;19.90;;;;;;;-0.82;100.00;99626.88;1787927;80;25607;-60
2023/11/21 00:32:39;;;;;;;29.82;19.02;;;;;;;-0.81;100.00;99633.27;1758913;81;25449;-61
2023/11/21 00:35:10;;;;;;;31.33;20.05;;;;;;;-0.81;100.00;99637.80;1766690;81;27684;-56
2023/11/21 00:37:39;;;;;;;51.92;30.27;;;;;;;-0.81;100.00;99649.21;1761832;80;25531;-57
2023/11/21 00:40:09;;;;;;;116.42;87.00;;;;;;;-0.78;100.00;99646.59;1763848;81;25489;-57
2023/11/21 00:42:37;;;;;;;49.20;34.90;;;;;;;-0.73;100.00;99649.81;1766803;81;26067;-58
2023/11/21 00:45:08;;;;;;;31.50;20.68;;;;;;;-0.71;100.00;99642.42;1790402;80;25392;-58
2023/11/21 00:47:35;;;;;;;31.93;19.70;;;;;;;-0.71;100.00;99644.53;1763763;81;27325;-58
2023/11/21 00:50:06;;;;;;;33.38;20.35;;;;;;;-0.71;100.00;99647.20;1766621;81;26015;-58
2023/11/21 00:52:34;;;;;;;35.00;21.80;;;;;;;-0.73;100.00;99649.30;1787965;80;25391;-57
2023/11/21 00:55:03;;;;;;;31.02;19.02;;;;;;;-0.72;100.00;99653.55;1763713;81;25572;-57
2023/11/21 00:57:29;;;;;;;;;;;;;;;-0.78;100.00;99647.92;1790587;80;25541;-58
2023/11/21 00:59:58;;;;;;;32.20;20.02;;;;;;;-0.79;100.00;99647.63;1788339;80;27795;-58
2023/11/21 01:02:25;;;;;;;33.38;20.40;;;;;;;-0.81;100.00;99654.52;1788686;80;25224;-57
2023/11/21 01:04:52;;;;;;;34.15;20.88;;;;;;;-0.82;100.00;99656.09;1788939;80;25181;-58
2023/11/21 01:07:20;;;;;;;32.25;20.23;;;;;;;-0.82;100.00;99657.42;1763970;81;25944;-53
2023/11/21 01:09:49;;;;;;;32.58;20.32;;;;;;;-0.85;100.00;99660.06;1759292;80;25544;-54
2023/11/21 01:12:17;;;;;;;29.77;18.70;;;;;;;-0.87;100.00;99663.50;1788336;80;27216;-53
2023/11/21 01:14:45;;;;;;;32.80;20.17;;;;;;;-0.96;100.00;99659.66;1763781;81;25652;-53
2023/11/21 01:17:13;;;;;;;32.55;20.15;;;;;;;-1.04;100.00;99658.27;1787425;80;25915;-60
2023/11/21 01:19:40;;;;;;;32.40;19.42;;;;;;;-1.08;100.00;99662.44;1787938;80;26592;-58
2023/11/21 01:22:06;;;;;;;32.00;19.62;;;;;;;-1.10;100.00;99664.55;1788154;80;25498;-60
2023/11/21 01:24:35;;;;;;;29.98;19.32;;;;;;;-1.11;100.00;99671.42;1763956;81;27199;-59
2023/11/21 01:27:02;;;;;;;33.98;20.40;;;;;;;-1.12;100.00;99667.98;1786283;80;29698;-59
2023/11/21 01:29:30;;;;;;;33.70;20.00;;;;;;;-1.13;100.00;99668.48;1776425;80;25424;-60
2023/11/21 01:31:57;;;;;;;32.93;20.30;;;;;;;-1.15;100.00;99671.91;1776280;80;25628;-61
2023/11/21 01:34:27;;;;;;;34.83;21.57;;;;;;;-1.15;100.00;99669.26;1757893;81;25188;-61
2023/11/21 01:36:54;;;;;;;31.90;20.10;;;;;;;-1.13;100.00;99680.95;1758584;81;27731;-62
2023/11/21 01:39:23;;;;;;;30.52;19.90;;;;;;;-1.12;100.00;99679.92;1776083;79;25574;-61
2023/11/21 01:41:52;;;;;;;30.82;19.48;;;;;;;-1.10;100.00;99682.33;1757758;81;25551;-61
2023/11/21 01:44:19;;;;;;;31.60;20.08;;;;;;;-1.09;100.00;99682.59;1776358;80;25620;-62
2023/11/21 01:46:50;;;;;;;32.05;19.67;;;;;;;-1.09;100.00;99682.09;1757978;81;25585;-62
2023/11/21 01:49:21;;;;;;;31.60;19.12;;;;;;;-1.09;100.00;99678.11;1757709;81;28302;-62
2023/11/21 01:51:49;;;;;;;;;;;;;;;-1.09;100.00;99679.44;1760743;81;25648;-62
2023/11/21 01:54:19;;;;;;;31.80;19.67;;;;;;;-1.09;100.00;99680.77;1758263;81;25529;-62
2023/11/21 01:56:47;;;;;;;;;;;;;;;-1.10;100.00;99681.80;1760744;81;26613;-61
2023/11/21 01:59:23;;;;;;;29.67;17.85;;;;;;;-1.10;100.00;99688.44;1758252;81;25374;-62
2023/11/21 02:01:51;;;;;;;31.90;19.10;;;;;;;-1.11;100.00;99680.71;1776211;80;27919;-61
2023/11/21 02:04:20;;;;;;;31.97;19.40;;;;;;;-1.13;100.00;99683.08;1757592;81;25767;-62
2023/11/21 02:06:47;;;;;;;29.85;18.60;;;;;;;-1.13;100.00;99683.08;1730134;81;25425;-62
2023/11/21 02:09:15;;;;;;;34.83;19.37;;;;;;;-1.13;100.00;99684.94;1776336;80;25674;-61
2023/11/21 02:11:44;;;;;;;32.33;20.08;;;;;;;-1.13;100.00;99687.06;1757657;81;25565;-61
2023/11/21 02:14:11;;;;;;;33.73;19.10;;;;;;;-1.13;100.00;99687.59;1776666;80;28357;-62
2023/11/21 02:16:40;;;;;;;35.25;19.62;;;;;;;-1.14;100.00;99692.11;1757457;81;25562;-61
2023/11/21 02:19:30;;;;;;;33.92;19.65;;;;;;;-1.13;100.00;99689.72;1674762;84;25646;-60
2023/11/21 02:22:06;;;;;;;31.97;20.48;;;;;;;-1.14;100.00;99688.13;1687385;85;26381;-61
2023/11/21 02:24:33;;;;;;;33.13;20.35;;;;;;;-1.13;100.00;99688.39;1694504;84;25466;-61
2023/11/21 02:27:00;;;;;;;36.10;20.02;;;;;;;-1.13;100.00;99693.70;1674819;85;28359;-62
2023/11/21 02:29:28;;;;;;;33.60;20.00;;;;;;;-1.13;100.00;99692.90;1674972;85;25591;-62
2023/11/21 02:31:56;;;;;;;33.85;19.98;;;;;;;-1.13;100.00;99701.66;1675044;85;25662;-62
2023/11/21 02:34:45;;;;;;;35.95;20.17;;;;;;;-1.16;100.00;99696.87;1650261;86;25660;-61
2023/11/21 02:37:13;;;;;;;33.58;20.92;;;;;;;-1.16;100.00;99695.54;1643795;86;25640;-61
2023/11/21 02:39:42;;;;;;;34.88;19.77;;;;;;;-1.18;100.00;99698.94;1643587;87;27215;-61
2023/11/21 02:42:09;;;;;;;34.10;20.70;;;;;;;-1.18;100.00;99700.27;1643754;87;25727;-60
2023/11/21 02:44:36;;;;;;;34.85;21.45;;;;;;;-1.19;100.00;99700.51;1645083;86;25641;-60
2023/11/21 02:47:04;;;;;;;34.15;19.87;;;;;;;-1.20;100.00;99697.59;1646285;86;25965;-60
2023/11/21 02:49:34;;;;;;;33.48;19.67;;;;;;;-1.20;100.00;99698.39;1647046;86;25425;-60
2023/11/21 02:52:04;;;;;;;36.50;22.32;;;;;;;-1.17;100.00;99701.09;1646175;86;27341;-60
2023/11/21 02:54:33;;;;;;;;;;;;;;;-1.20;100.00;99706.34;1633028;87;25699;-59
2023/11/21 02:56:59;;;;;;;35.38;19.52;;;;;;;-1.22;100.00;99705.80;1631918;87;25663;-59
2023/11/21 02:59:25;;;;;;;33.33;20.08;;;;;;;-1.23;100.00;99708.69;1632789;87;25969;-59
2023/11/21 03:01:54;;;;;;;33.98;20.00;;;;;;;-1.22;100.00;99711.64;1614434;87;25587;-59
2023/11/21 03:04:21;;;;;;;37.60;20.90;;;;;;;-1.20;100.00;99710.33;1634884;87;27875;-61
2023/11/21 03:06:51;;;;;;;32.88;20.57;;;;;;;-1.22;100.00;99712.44;1631392;86;25505;-60
2023/11/21 03:09:19;;;;;;;33.53;20.27;;;;;;;-1.24;100.00;99712.38;1634520;87;25468;-60
2023/11/21 03:11:48;;;;;;;34.83;19.98;;;;;;;-1.25;100.00;99712.91;1631898;87;26317;-60
2023/11/21 03:14:17;;;;;;;37.43;20.83;;;;;;;-1.22;100.00;99716.95;1635686;87;25474;-60
2023/11/21 03:16:45;;;;;;;36.03;21.05;;;;;;;-1.22;100.00;99716.95;1633811;86;28031;-59
2023/11/21 03:19:15;;;;;;;36.58;20.85;;;;;;;-1.19;100.00;99713.78;1633877;87;25815;-60
2023/11/21 03:21:43;;;;;;;39.10;21.45;;;;;;;-1.20;100.00;99714.84;1596341;89;32733;-60
2023/11/21 03:24:11;;;;;;;33.38;20.02;;;;;;;-1.20;100.00;99714.31;1589946;90;25645;-60
2023/11/21 03:26:40;;;;;;;30.75;18.90;;;;;;;-1.25;100.00;99724.86;1589953;90;25641;-60
2023/11/21 03:29:08;;;;;;;33.85;20.00;;;;;;;-1.29;100.00;99726.91;1614961;88;28013;-60
2023/11/21 03:31:37;;;;;;;34.60;19.60;;;;;;;-1.29;100.00;99730.89;1615127;88;25591;-60
2023/11/21 03:34:06;;;;;;;40.25;19.77;;;;;;;-1.27;100.00;99728.81;1598862;88;25512;-60
2023/11/21 03:36:33;;;;;;;23.53;14.53;;;;;;;-1.26;100.00;99733.88;1629938;87;26270;-60
2023/11/21 03:39:05;;;;;;;35.45;21.00;;;;;;;-1.23;100.00;99731.25;1628094;88;25438;-60
2023/11/21 03:41:34;;;;;;;36.70;21.30;;;;;;;-1.21;100.00;99733.13;1633375;87;27375;-60
2023/11/21 03:44:02;;;;;;;26.52;16.17;;;;;;;-1.22;100.00;99731.01;1630603;87;25620;-61
2023/11/21 03:46:31;;;;;;;40.38;22.25;;;;;;;-1.24;100.00;99736.27;1622948;87;25596;-61
2023/11/21 03:48:59;;;;;;;33.88;20.70;;;;;;;-1.25;100.00;99734.14;1634779;87;25980;-61
2023/11/21 03:51:26;;;;;;;40.75;23.12;;;;;;;-1.26;100.00;99735.21;1632890;86;25588;-60
2023/11/21 03:53:54;;;;;;;38.30;22.20;;;;;;;-1.25;100.00;99739.98;1634928;87;27690;-60
2023/11/21 03:56:23;;;;;;;41.68;23.75;;;;;;;-1.29;100.00;99741.00;1629033;87;26020;-60
2023/11/21 03:58:52;;;;;;;42.63;23.07;;;;;;;-1.27;100.00;99744.20;1631165;87;25507;-61
2023/11/21 04:01:24;;;;;;;36.35;21.90;;;;;;;-1.27;100.00;99751.38;1637132;87;26190;-61
2023/11/21 04:03:53;;;;;;;37.88;20.40;;;;;;;-1.28;100.00;99754.53;1631650;87;25517;-61
2023/11/21 04:06:23;;;;;;;35.88;20.68;;;;;;;-1.32;100.00;99748.12;1627780;87;27112;-60
2023/11/21 04:08:52;;;;;;;28.93;17.43;;;;;;;-1.33;100.00;99759.27;1634076;87;25639;-59
2023/11/21 04:11:21;;;;;;;34.60;19.67;;;;;;;-1.34;100.00;99759.50;1637204;87;25599;-60
2023/11/21 04:13:49;;;;;;;38.80;21.30;;;;;;;-1.38;100.00;99757.03;1635690;87;25703;-61
2023/11/21 04:16:18;;;;;;;43.33;26.15;;;;;;;-1.38;100.00;99753.88;1631940;87;25478;-61
2023/11/21 04:18:47;;;;;;;37.05;21.00;;;;;;;-1.38;100.00;99757.03;1635830;86;28251;-61
2023/11/21 04:21:16;;;;;;;37.30;21.05;;;;;;;-1.40;100.00;99761.25;1631823;87;25687;-61
2023/11/21 04:23:44;;;;;;;25.45;14.13;;;;;;;-1.39;100.00;99760.22;1629257;87;25589;-60
2023/11/21 04:26:13;;;;;;;39.67;19.80;;;;;;;-1.38;100.00;99762.34;1631845;86;25643;-61
2023/11/21 04:28:42;;;;;;;30.85;17.85;;;;;;;-1.38;100.00;99765.00;1632958;87;25511;-61
2023/11/21 04:31:10;;;;;;;30.17;19.37;;;;;;;-1.40;100.00;99764.44;1629506;88;27327;-60
2023/11/21 04:33:39;;;;;;;31.55;19.52;;;;;;;-1.38;100.00;99768.47;1638877;86;25567;-61
2023/11/21 04:36:08;;;;;;;27.13;15.88;;;;;;;-1.37;100.00;99769.27;1658232;86;25466;-60
2023/11/21 04:38:37;;;;;;;28.55;18.45;;;;;;;-1.38;100.00;99772.45;1629631;87;26188;-60
2023/11/21 04:41:06;;;;;;;32.45;17.67;;;;;;;-1.38;100.00;99772.45;1628787;87;32398;-60
2023/11/21 04:43:35;;;;;;;32.57;18.43;;;;;;;-1.38;100.00;99770.30;1628957;87;27353;-60
2023/11/21 04:46:04;;;;;;;26.33;17.80;;;;;;;-1.40;100.00;99769.21;1628820;87;25630;-59
2023/11/21 04:48:33;;;;;;;29.70;17.37;;;;;;;-1.40;100.00;99770.54;1667616;85;25552;-60
2023/11/21 04:51:04;;;;;;;27.27;17.62;;;;;;;-1.43;100.00;99768.90;1628045;87;25676;-60
2023/11/21 04:53:32;;;;;;;30.75;16.65;;;;;;;-1.44;100.00;99773.41;1628068;88;25407;-60
2023/11/21 04:56:00;;;;;;;25.92;16.32;;;;;;;-1.45;100.00;99776.30;1627988;88;28021;-60
2023/11/21 04:58:32;;;;;;;26.20;16.57;;;;;;;-1.45;100.00;99779.75;1659931;85;25695;-60
2023/11/21 05:00:59;;;;;;;29.25;16.77;;;;;;;-1.44;100.00;99782.70;1658120;86;25555;-60
2023/11/21 05:03:29;;;;;;;29.95;17.02;;;;;;;-1.43;100.00;99783.48;1632849;87;26578;-59
2023/11/21 05:06:00;;;;;;;28.75;15.58;;;;;;;-1.41;100.00;99786.73;1633033;87;25576;-59
2023/11/21 05:08:28;;;;;;;22.10;13.77;;;;;;;-1.41;100.00;99796.02;1628882;87;27542;-60
2023/11/21 05:10:57;;;;;;;27.20;15.78;;;;;;;-1.41;100.00;99796.02;1628876;88;25379;-61
2023/11/21 05:13:27;;;;;;;25.97;15.00;;;;;;;-1.42;100.00;99796.52;1628686;86;25430;-60
2023/11/21 05:15:59;;;;;;;24.18;14.70;;;;;;;-1.40;100.00;99800.25;1627968;87;26614;-60
2023/11/21 05:18:29;;;;;;;29.87;15.38;;;;;;;-1.39;100.00;99807.98;1630075;87;25455;-62
2023/11/21 05:20:58;;;;;;;22.27;14.45;;;;;;;-1.37;100.00;99810.39;1658282;85;27333;-60
2023/11/21 05:23:26;;;;;;;24.12;14.87;;;;;;;-1.36;100.00;99808.83;1658121;86;26003;-62
2023/11/21 05:25:56;;;;;;;23.12;14.38;;;;;;;-1.34;100.00;99812.03;1632622;87;25610;-60
2023/11/21 05:28:25;;;;;;;27.07;17.60;;;;;;;-1.32;100.00;99807.82;1658874;86;25736;-62
2023/11/21 05:30:53;;;;;;;26.93;14.58;;;;;;;-1.31;100.00;99810.77;1658896;86;25310;-60
2023/11/21 05:33:20;;;;;;;18.63;10.83;;;;;;;-1.31;100.00;99806.78;1657205;86;28247;-60
2023/11/21 05:35:48;;;;;;;23.00;13.45;;;;;;;-1.32;100.00;99807.28;1629785;87;25659;-60
2023/11/21 05:38:15;;;;;;;20.30;12.67;;;;;;;-1.30;100.00;99820.31;1630115;87;25422;-58
2023/11/21 05:40:44;;;;;;;23.03;13.97;;;;;;;-1.29;100.00;99823.77;1629983;87;26538;-59
2023/11/21 05:43:10;;;;;;;24.23;14.13;;;;;;;-1.31;100.00;99817.40;1629789;87;25566;-61
2023/11/21 05:45:37;;;;;;;22.15;14.28;;;;;;;-1.33;100.00;99826.09;1631640;87;27684;-60
2023/11/21 05:48:04;;;;;;;19.25;12.25;;;;;;;-1.34;100.00;99829.28;1629877;87;25464;-60
2023/11/21 05:50:32;;;;;;;22.35;12.70;;;;;;;-1.34;100.00;99826.63;1633991;87;25603;-61
2023/11/21 05:53:00;;;;;;;21.23;13.22;;;;;;;-1.35;100.00;99825.01;1629503;87;25670;-60
2023/11/21 05:55:28;;;;;;;21.68;13.03;;;;;;;-1.35;100.00;99832.17;1632010;87;25421;-59
2023/11/21 05:57:56;;;;;;;20.85;13.13;;;;;;;-1.34;100.00;99831.14;1631178;87;27226;-59
2023/11/21 06:00:25;;;;;;;22.27;12.82;;;;;;;-1.34;100.00;99831.94;1631016;87;25976;-62
2023/11/21 06:02:53;;;;;;;20.95;13.50;;;;;;;-1.33;100.00;99840.19;1629294;87;25572;-61
2023/11/21 06:05:24;;;;;;;19.65;13.00;;;;;;;-1.30;100.00;99843.41;1628654;87;25975;-58
2023/11/21 06:07:58;;;;;;;20.40;12.65;;;;;;;-1.31;100.00;99842.61;1625903;87;25608;-56
2023/11/21 06:10:25;;;;;;;18.15;11.88;;;;;;;-1.33;100.00;99844.17;1626942;87;27906;-58
2023/11/21 06:12:53;;;;;;;19.60;12.25;;;;;;;-1.32;100.00;99847.09;1633714;87;25612;-55
2023/11/21 06:15:22;;;;;;;19.05;12.90;;;;;;;-1.35;100.00;99848.89;1631564;87;25590;-59
2023/11/21 06:17:52;;;;;;;20.15;13.95;;;;;;;-1.38;100.00;99854.70;1630267;87;25579;-57
2023/11/21 06:20:21;;;;;;;21.97;13.72;;;;;;;-1.38;100.00;99859.19;1631027;87;25679;-58
2023/11/21 06:22:53;;;;;;;25.70;14.68;;;;;;;-1.37;100.00;99870.89;1627233;87;27381;-58
2023/11/21 06:25:22;;;;;;;19.73;13.03;;;;;;;-1.36;100.00;99865.08;1629458;87;25695;-58
2023/11/21 06:27:52;;;;;;;22.40;13.60;;;;;;;-1.36;100.00;99875.70;1631068;87;25655;-58
2023/11/21 06:30:19;;;;;;;21.35;13.98;;;;;;;-1.36;100.00;99874.37;1630787;87;25972;-59
2023/11/21 06:32:46;;;;;;;23.20;14.50;;;;;;;-1.36;100.00;99877.02;1630986;87;25767;-58
2023/11/21 06:35:13;;;;;;;21.68;14.33;;;;;;;-1.35;100.00;99875.42;1628653;87;27378;-57
2023/11/21 06:37:39;;;;;;;23.85;14.25;;;;;;;-1.33;100.00;99868.55;1627885;88;25981;-59
2023/11/21 06:40:09;;;;;;;24.30;15.53;;;;;;;-1.34;100.00;99873.06;1628295;88;25656;-58
2023/11/21 06:42:38;;;;;;;22.48;14.15;;;;;;;-1.35;100.00;99876.75;1628298;88;25643;-57
2023/11/21 06:45:10;;;;;;;25.52;14.60;;;;;;;-1.35;100.00;99876.75;1628315;87;25669;-58
2023/11/21 06:47:39;;;;;;;22.98;14.70;;;;;;;-1.35;100.00;99885.25;1628350;87;27331;-57
2023/11/21 06:50:09;;;;;;;21.23;14.15;;;;;;;-1.37;100.00;99888.67;1628338;88;31994;-57
2023/11/21 06:52:35;;;;;;;27.15;15.20;;;;;;;-1.38;100.00;99894.50;1628472;87;25497;-57
2023/11/21 06:55:11;;;;;;;23.60;15.13;;;;;;;-1.37;100.00;99902.73;1628384;88;25526;-56
2023/11/21 06:57:38;;;;;;;27.58;15.93;;;;;;;-1.37;100.00;99904.05;1628355;87;25432;-58
2023/11/21 07:00:11;;;;;;;23.57;14.65;;;;;;;-1.34;100.00;99906.77;1628524;88;27734;-57
2023/11/21 07:02:39;;;;;;;27.80;16.35;;;;;;;-1.32;100.00;99907.33;1628246;87;25506;-57
2023/11/21 07:05:09;;;;;;;27.98;17.23;;;;;;;-1.31;100.00;99906.30;1628278;88;25567;-56
2023/11/21 07:07:38;;;;;;;29.72;15.98;;;;;;;-1.30;100.00;99915.05;1628289;88;26028;-59
2023/11/21 07:10:08;;;;;;;27.50;16.75;;;;;;;-1.28;100.00;99913.75;1628450;87;25697;-55
2023/11/21 07:12:35;;;;;;;29.52;16.40;;;;;;;-1.26;100.00;99916.17;1628353;88;27380;-56
2023/11/21 07:15:09;;;;;;;28.83;16.57;;;;;;;-1.26;100.00;99920.15;1628216;87;26170;-54
2023/11/21 07:17:40;;;;;;;29.82;16.85;;;;;;;-1.24;100.00;99919.38;1628344;87;25643;-57
2023/11/21 07:20:10;;;;;;;28.87;15.53;;;;;;;-1.23;100.00;99922.33;1628344;87;25673;-57
2023/11/21 07:22:37;;;;;;;30.55;16.05;;;;;;;-1.25;100.00;99917.80;1628397;88;25416;-58
2023/11/21 07:25:07;;;;;;;28.95;16.10;;;;;;;-1.27;100.00;99923.87;1628354;88;28400;-58
2023/11/21 07:27:37;;;;;;;25.48;16.02;;;;;;;-1.27;100.00;99925.20;1639103;87;25502;-58
2023/11/21 07:30:09;;;;;;;27.87;16.30;;;;;;;-1.24;100.00;99926.02;1628324;88;25676;-57
2023/11/21 07:32:39;;;;;;;30.23;16.75;;;;;;;-1.25;100.00;99931.86;1628388;87;26214;-57
2023/11/21 07:35:09;;;;;;;34.63;18.17;;;;;;;-1.24;100.00;99935.30;1630299;86;25920;-58
2023/11/21 07:37:35;;;;;;;30.75;16.42;;;;;;;-1.24;100.00;99940.11;1635662;87;27318;-58
2023/11/21 07:40:03;;;;;;;27.93;15.55;;;;;;;-1.23;100.00;99931.09;1608924;88;25635;-59
2023/11/21 07:42:30;;;;;;;26.23;16.42;;;;;;;-1.21;100.00;99939.64;1624171;88;25580;-59
2023/11/21 07:44:57;;;;;;;27.45;15.72;;;;;;;-1.19;100.00;99936.72;1631277;87;26331;-60
2023/11/21 07:47:26;;;;;;;28.60;15.65;;;;;;;-1.17;100.00;99939.43;1629227;88;25258;-59
2023/11/21 07:49:54;;;;;;;27.77;16.45;;;;;;;-1.15;100.00;99935.21;1631964;87;28321;-59
2023/11/21 07:52:21;;;;;;;24.90;15.23;;;;;;;-1.13;100.00;99938.42;1631221;87;25458;-60
2023/11/21 07:54:47;;;;;;;24.70;15.13;;;;;;;-1.10;100.00;99941.14;1630353;87;25410;-60
2023/11/21 07:57:15;;;;;;;27.65;15.75;;;;;;;-1.11;100.00;99935.53;1631292;87;25620;-59
2023/11/21 07:59:42;;;;;;;28.42;15.98;;;;;;;-1.10;100.00;99937.16;1630008;87;25229;-58
2023/11/21 08:02:09;;;;;;;27.35;15.72;;;;;;;-1.13;100.00;99939.75;1631656;87;28434;-56
2023/11/21 08:04:36;;;;;;;30.27;16.00;;;;;;;-1.13;100.00;99938.42;1604961;87;25490;-59
2023/11/21 08:07:04;;;;;;;23.98;15.80;;;;;;;-1.10;100.00;99935.30;1621901;88;25220;-61
2023/11/21 08:09:31;;;;;;;31.80;16.80;;;;;;;-1.10;100.00;99939.81;1621860;88;25825;-59
2023/11/21 08:11:58;;;;;;;30.32;17.73;;;;;;;-1.07;100.00;99943.29;1621873;87;25675;-60
2023/11/21 08:14:25;;;;;;;34.95;19.77;;;;;;;-1.05;100.00;99947.86;1621925;88;27389;-59
2023/11/21 08:16:52;;;;;;;34.43;19.00;;;;;;;-1.03;100.00;99948.42;1621748;87;25432;-60
2023/11/21 08:19:19;;;;;;;32.13;19.25;;;;;;;-1.01;100.00;99957.73;1626942;88;25560;-60
2023/11/21 08:21:45;;;;;;;35.33;20.30;;;;;;;-0.98;100.00;99963.91;1631234;87;26036;-59
2023/11/21 08:24:12;;;;;;;35.00;20.40;;;;;;;-0.95;100.00;99966.61;1621860;88;25636;-60
2023/11/21 08:26:38;;;;;;;34.55;19.80;;;;;;;-0.95;100.00;99962.63;1621845;87;27760;-59
2023/11/21 08:29:06;;;;;;;32.23;19.48;;;;;;;-0.94;100.00;99969.53;1621725;88;25915;-59
2023/11/21 08:31:33;;;;;;;31.95;19.70;;;;;;;-0.93;100.00;99970.36;1627322;87;25459;-59
2023/11/21 08:34:01;;;;;;;30.70;18.65;;;;;;;-0.89;100.00;99975.45;1630735;87;26685;-59
2023/11/21 08:36:28;;;;;;;31.07;17.90;;;;;;;-0.87;100.00;99972.86;1656558;86;25449;-59
2023/11/21 08:38:55;;;;;;;29.45;17.62;;;;;;;-0.83;100.00;99979.28;1658116;86;27518;-59
2023/11/21 08:41:21;;;;;;;30.85;18.27;;;;;;;-0.81;100.00;99976.39;1627749;88;25628;-59
2023/11/21 08:43:50;;;;;;;29.60;17.00;;;;;;;-0.79;100.00;99980.41;1628621;87;25429;-60
2023/11/21 08:46:17;;;;;;;26.93;18.12;;;;;;;-0.74;100.00;99982.88;1629052;86;25620;-61
2023/11/21 08:48:44;;;;;;;29.10;17.23;;;;;;;-0.73;100.00;99987.13;1667527;86;25652;-58
2023/11/21 08:51:13;;;;;;;30.85;18.05;;;;;;;-0.71;100.00;99987.18;1662445;86;28091;-60
2023/11/21 08:53:40;;;;;;;30.05;16.77;;;;;;;-0.69;100.00;99984.28;1658115;86;25580;-61
2023/11/21 08:56:09;;;;;;;27.62;16.75;;;;;;;-0.67;100.00;99989.62;1659536;86;25574;-59
2023/11/21 08:58:37;;;;;;;20.23;12.20;;;;;;;-0.64;100.00;99988.34;1658192;86;25736;-61
2023/11/21 09:01:07;;;;;;;25.92;15.35;;;;;;;-0.64;100.00;99987.02;1658126;86;25502;-60
2023/11/21 09:03:33;;;;;;;25.90;15.30;;;;;;;-0.63;100.00;99994.75;1658094;86;27348;-60
2023/11/21 09:06:01;;;;;;;27.82;17.90;;;;;;;-0.62;100.00;99994.22;1657955;86;25410;-61
2023/11/21 09:08:29;;;;;;;31.17;18.27;;;;;;;-0.61;100.00;99991.33;1632138;87;25434;-61
2023/11/21 09:10:56;;;;;;;31.90;18.37;;;;;;;-0.55;100.00;100006.02;1628115;87;26324;-60
2023/11/21 09:13:25;;;;;;;30.27;18.15;;;;;;;-0.57;100.00;99996.42;1629769;87;25668;-60
2023/11/21 09:15:51;;;;;;;27.05;17.20;;;;;;;-0.54;100.00;100000.99;1628740;87;27780;-61
2023/11/21 09:18:17;;;;;;;30.50;17.95;;;;;;;-0.52;100.00;100002.34;1628703;87;25642;-61
2023/11/21 09:20:44;;;;;;;28.65;17.45;;;;;;;-0.48;100.00;100007.98;1661005;86;25497;-61
2023/11/21 09:23:10;;;;;;;33.33;18.60;;;;;;;-0.47;100.00;100005.08;1658057;86;25514;-60
2023/11/21 09:25:37;;;;;;;29.48;17.98;;;;;;;-0.43;100.00;100006.19;1658243;86;25501;-62
2023/11/21 09:28:09;;;;;;;28.67;17.65;;;;;;;-0.41;100.00;100009.94;1633586;87;27663;-61
2023/11/21 09:30:36;;;;;;;28.75;17.20;;;;;;;-0.39;100.00;100016.63;1630184;87;25671;-62
2023/11/21 09:33:08;;;;;;;31.55;18.75;;;;;;;-0.38;100.00;100016.10;1629162;86;25592;-61
2023/11/21 09:35:32;;;;;;;30.92;19.82;;;;;;;-0.36;100.00;100014.00;1630372;86;25913;-60
2023/11/21 09:38:01;;;;;;;33.13;20.82;;;;;;;-0.33;100.00;100015.38;1631852;87;25486;-61
2023/11/21 09:40:28;;;;;;;33.13;19.67;;;;;;;-0.29;100.00;100017.83;1630509;88;27541;-62
2023/11/21 09:42:58;;;;;;;36.00;18.70;;;;;;;-0.25;100.00;100012.31;1630396;88;25615;-62
2023/11/21 09:45:37;;;;;;;29.25;17.27;;;;;;;-0.23;100.00;100008.35;1630500;88;25485;-63
2023/11/21 09:48:06;;;;;;;31.05;17.98;;;;;;;-0.20;100.00;100007.08;1630565;88;25632;-62
2023/11/21 09:50:33;;;;;;;30.85;17.70;;;;;;;-0.16;100.00;100009.51;1605987;88;25660;-62
2023/11/21 09:53:24;;;;;;;27.77;16.32;;;;;;;-0.12;100.00;100008.49;1630459;87;28368;-61
2023/11/21 09:55:53;;;;;;;25.43;16.80;;;;;;;-0.08;100.00;100012.30;1630488;87;25525;-62
2023/11/21 09:58:23;;;;;;;25.65;16.48;;;;;;;-0.07;100.00;100009.89;1630587;87;25683;-62
2023/11/21 10:00:53;;;;;;;24.32;15.72;;;;;;;-0.02;100.00;100013.45;1630562;88;25704;-61
2023/11/21 10:03:19;;;;;;;28.55;16.70;;;;;;;-0.01;100.00;100016.37;1630575;88;25568;-62
2023/11/21 10:05:51;;;;;;;29.18;18.02;;;;;;;0.03;100.00;100019.87;1630549;87;27341;-63
2023/11/21 10:08:19;;;;;;;26.42;17.25;;;;;;;0.05;100.00;100021.25;1630464;88;25482;-63
2023/11/21 10:10:51;;;;;;;24.75;15.48;;;;;;;0.08;100.00;100028.71;1630629;87;32831;-61
2023/11/21 10:13:19;;;;;;;26.30;15.08;;;;;;;0.08;100.00;100032.70;1630434;88;25671;-62
2023/11/21 10:15:52;;;;;;;24.50;15.15;;;;;;;0.06;100.00;100027.37;1630447;87;25665;-62
2023/11/21 10:18:41;;;;;;;24.32;14.58;;;;;;;0.07;100.00;100024.46;1630552;87;27691;-61
2023/11/21 10:21:10;;;;;;;26.02;14.30;;;;;;;0.07;100.00;100027.13;1623087;88;25612;-61
2023/11/21 10:23:36;;;;;;;26.12;16.20;;;;;;;0.06;100.00;100021.52;1623984;88;25724;-62
2023/11/21 10:26:05;;;;;;;25.08;15.25;;;;;;;0.08;100.00;100030.05;1630479;87;25628;-62
2023/11/21 10:28:39;;;;;;;25.97;15.60;;;;;;;0.08;100.00;100030.05;1629286;88;25468;-62
2023/11/21 10:31:08;;;;;;;23.75;14.50;;;;;;;0.10;100.00;100035.12;1629134;87;27351;-61
2023/11/21 10:33:35;;;;;;;24.50;14.93;;;;;;;0.05;100.00;100034.55;1629108;87;25564;-62
2023/11/21 10:36:02;;;;;;;24.52;15.83;;;;;;;0.03;100.00;100034.50;1629200;87;25457;-62
2023/11/21 10:38:35;;;;;;;34.98;18.27;;;;;;;0.04;100.00;100035.59;1629076;87;25923;-62
2023/11/21 10:41:04;;;;;;;25.80;16.27;;;;;;;0.05;100.00;100032.39;1629147;87;25449;-60
2023/11/21 10:43:31;;;;;;;27.85;16.87;;;;;;;-0.01;100.00;100028.33;1629297;88;27409;-60
2023/11/21 10:45:59;;;;;;;29.52;17.70;;;;;;;-0.02;100.00;100039.22;1654889;85;25441;-62
2023/11/21 10:48:27;;;;;;;25.30;16.57;;;;;;;-0.04;100.00;100036.80;1641380;86;25579;-61
2023/11/21 10:50:56;;;;;;;28.23;16.82;;;;;;;-0.07;100.00;100039.14;1663561;86;25939;-60
2023/11/21 10:53:23;;;;;;;26.12;16.40;;;;;;;-0.07;100.00;100041.80;1638870;87;25433;-61
2023/11/21 10:55:51;;;;;;;31.37;17.10;;;;;;;-0.04;100.00;100045.30;1664351;86;27861;-61
2023/11/21 10:58:19;;;;;;;30.10;17.75;;;;;;;-0.06;100.00;100045.55;1664414;86;25419;-61
2023/11/21 11:00:46;;;;;;;27.05;16.75;;;;;;;-0.06;100.00;100045.55;1663349;86;25627;-62
2023/11/21 11:03:14;;;;;;;30.35;17.87;;;;;;;-0.08;100.00;100049.52;1664184;86;26629;-61
2023/11/21 11:05:51;;;;;;;29.12;17.32;;;;;;;-0.08;100.00;100041.00;1623340;87;25588;-63
2023/11/21 11:08:18;;;;;;;35.05;21.45;;;;;;;-0.06;100.00;100039.44;1624335;87;27279;-62
2023/11/21 11:10:47;;;;;;;56.15;33.05;;;;;;;-0.06;100.00;100054.86;1663723;86;25675;-62
2023/11/21 11:13:16;;;;;;;45.63;28.10;;;;;;;-0.02;100.00;100048.52;1642054;86;25717;-63
2023/11/21 11:15:48;;;;;;;33.90;20.02;;;;;;;-0.01;100.00;100058.92;1663537;86;25723;-54